Algoscotia — VAAP — position and weather

sailwx.info

Track history (hours):
 
Tides and Currents Weather Stations Pressure Air Temp Water Temp Dewpoint Dewpoint Depression Visibility Wind Speed Wind Dir Waves Ship Positions

Algoscotia

Last reported at 2018-Feb-20 03:00 UTC. Time now 2018-Feb-20 04:17 UTC.
Position N 46°48' W 071°12'.

Length 148.8 m; beam 23.76 m; draft 3.6 m.

Type: Tanker. MMSI: 316009560.

Wind from 220 at 6 knots

Barometer 1022.0 mb
Air temperature 1.5 ° C
Dewpoint -0.3 ° C

Date/timePositionNaut miles runAvg speedWind from/ knotsBaromVisibWave heightAir tempDewpointWater temp
2018-Feb-20 03:00N 46°48' W 071°12'0 0.0 220 / 61022.0 1.5-0.3
2018-Feb-20 02:00N 46°48' W 071°12'0 0.0 230 / 71022.0 2.0-1.1
2018-Feb-20 01:00N 46°48' W 071°12'0 0.0 230 / 111021.7 3.0-2.6
2018-Feb-20 00:00N 46°48' W 071°12'0 0.0 210 / 71021.2 3.5-3.2
2018-Feb-19 23:00N 46°48' W 071°12'0 0.0 240 / 21021.0 4.0-3.4
2018-Feb-19 22:00N 46°48' W 071°12'0 0.0 160 / 11021.6 4.3-4.2
2018-Feb-19 20:00N 46°48' W 071°12'0 0.0 050 / 11021.8 5.3-4.8
2018-Feb-19 19:00N 46°48' W 071°12'0 0.0 060 / 31021.9 3.7-5.9
2018-Feb-19 18:00N 46°48' W 071°12'1 1.2 030 / 81022.8 1.2-6.3
2018-Feb-19 17:05N 46°49' W 071°12'112.7
2018-Feb-19 17:00N 46°48' W 071°12'2733.4 120 / 11024.0 -0.4-6.1
2018-Feb-19 16:59N 46°50' W 071°11'1312.7
2018-Feb-19 16:00N 46°54' W 070°54'7 7.3 230 / 41024.7 0.2-6.5
2018-Feb-19 15:00N 47°00' W 070°48'1312.7 250 / 131025.3 -1.0-6.9
2018-Feb-19 14:00N 47°12' W 070°42'1010.1 220 / 271025.9 -0.2-7.0
2018-Feb-19 13:00N 47°18' W 070°30'1414.5 200 / 231026.4 -1.2-4.9
2018-Feb-19 12:00N 47°30' W 070°18'1413.5 220 / 201026.9 -1.7-5.1
2018-Feb-19 11:00N 47°36' W 070°00'1414.5 230 / 121027.4 -3.4-5.4
2018-Feb-19 10:00N 47°48' W 069°48'2713.4 190 / 131027.0 -3.1-6.2
2018-Feb-19 08:00N 48°12' W 069°30'1414.4 220 / 231026.2 -2.3-4.5
2018-Feb-19 07:00N 48°24' W 069°18'1313.4 230 / 151026.9 -2.9-5.2
2018-Feb-19 06:00N 48°30' W 069°00'1414.4 220 / 191027.1 -2.4-4.7
2018-Feb-19 05:00N 48°42' W 068°48'1313.3 250 / 131026.8 -2.4-6.1
2018-Feb-19 04:00N 48°48' W 068°30'1313.3 280 / 81026.8 -2.1-8.4
2018-Feb-19 03:00N 48°54' W 068°12'1313.3 290 / 101026.4 -2.2-5.9
2018-Feb-19 02:00N 49°00' W 067°54'10 9.9 280 / 171025.5 -2.1-6.3
2018-Feb-19 01:00N 49°06' W 067°42'10 9.9 270 / 221023.4 -1.7-7.3
2018-Feb-19 00:00N 49°12' W 067°30'1313.2 270 / 161022.1 -1.7-5.3
2018-Feb-18 23:00N 49°18' W 067°12'1313.2 270 / 181019.8 -2.1-4.7
2018-Feb-18 22:00N 49°24' W 066°54'1211.7 250 / 211018.8 -2.5-5.0
2018-Feb-18 21:00N 49°24' W 066°36'1313.2 240 / 151018.1 -2.9-4.7
2018-Feb-18 20:00N 49°30' W 066°18'1716.7 230 / 61017.1 -4.2-5.9
2018-Feb-18 19:00N 49°36' W 065°54'8 7.8 260 / 121016.4 -4.5-6.5
2018-Feb-18 18:00N 49°36' W 065°42'1211.7 250 / 101016.2 -4.0-7.8
2018-Feb-18 17:00N 49°36' W 065°24'1313.1 260 / 71016.1 -4.3-8.8
2018-Feb-18 16:00N 49°30' W 065°06'1313.2 230 / 91015.9 -4.3-9.3
2018-Feb-18 15:00N 49°24' W 064°48'1313.2 220 / 101016.0 -5.5-9.3
2018-Feb-18 14:00N 49°18' W 064°30'1313.2 210 / 111016.2 -5.9-9.9
2018-Feb-18 13:00N 49°12' W 064°12'1211.8 180 / 161016.4 -6.8-10.6
2018-Feb-18 12:00N 49°12' W 063°54'10 9.9 180 / 171016.8 -6.5-9.1
2018-Feb-18 11:00N 49°06' W 063°42'1716.8 160 / 121017.6 -7.1-10.3
2018-Feb-18 10:00N 48°54' W 063°24'1211.8 170 / 171019.3 -7.6-9.9
2018-Feb-18 09:00N 48°54' W 063°06'1313.3 130 / 131020.3 -8.2-10.5
2018-Feb-18 08:00N 48°48' W 062°48'8 7.9 170 / 171021.3 -9.5-11.5
2018-Feb-18 07:00N 48°48' W 062°36'1313.3 160 / 121022.9 -9.9-12.2
2018-Feb-18 06:00N 48°42' W 062°18'1313.3 180 / 151023.5 -10.3-12.7
2018-Feb-18 05:00N 48°36' W 062°00'1010.0 200 / 131024.6 -11.2-14.1
2018-Feb-18 04:00N 48°30' W 061°48'1010.0 170 / 81025.9 -12.3-15.5
2018-Feb-18 03:00N 48°24' W 061°36'2512.3 230 / 91026.3 -11.9-15.7
2018-Feb-18 01:00N 48°18' W 061°00'1313.4 280 / 201025.2 -11.7-15.7
2018-Feb-18 00:00N 48°12' W 060°42'1010.0 290 / 251024.8 -11.2-14.9
2018-Feb-17 23:00N 48°06' W 060°30'1414.4 300 / 331023.6 -11.2-16.0
2018-Feb-17 22:00N 47°54' W 060°18'1312.7 290 / 291023.3 -11.5-15.3
2018-Feb-17 21:00N 47°42' W 060°12'7 7.2 290 / 331023.1 -12.2-16.2
2018-Feb-17 20:00N 47°36' W 060°06'1414.5 290 / 401021.7 -12.2-16.4
2018-Feb-17 19:00N 47°24' W 059°54'1312.7 290 / 341020.8 -11.8-15.4
2018-Feb-17 18:00N 47°12' W 059°48'7 7.3 290 / 401018.3 -11.5-15.8
2018-Feb-17 17:00N 47°06' W 059°42'1312.7 260 / 131017.6 -11.6-16.8
2018-Feb-17 16:00N 46°54' W 059°48'6 6.0 300 / 331017.7 -11.4-15.2
2018-Feb-17 15:00N 46°48' W 059°48'18 9.2 290 / 351016.5 -10.7-14.9
2018-Feb-17 13:00N 46°30' W 059°42'1312.7 300 / 401011.3 -9.0-13.4
2018-Feb-17 12:00N 46°18' W 059°36'1212.0 290 / 391009.8 -8.1-12.2
2018-Feb-17 11:00N 46°06' W 059°36'1212.0 300 / 391007.0 -6.7-11.3
2018-Feb-17 10:00N 45°54' W 059°36'1010.3 310 / 261005.5 -4.9-9.3
2018-Feb-17 09:00N 45°48' W 059°48'1010.3 310 / 241003.7 -4.2-8.3
2018-Feb-17 08:00N 45°42' W 060°00'1514.6 320 / 251001.7 -3.1-6.9
2018-Feb-17 07:00N 45°30' W 060°12'1414.0 320 / 29999.9 -2.2-5.3
2018-Feb-17 06:00N 45°24' W 060°30'1514.7 320 / 28997.9 -1.2-2.8
2018-Feb-17 05:00N 45°12' W 060°42'1010.4 280 / 13997.3 -0.6-1.1
2018-Feb-17 04:00N 45°06' W 060°54'1818.0 320 / 18996.9 0.1-0.0
2018-Feb-17 03:00N 45°00' W 061°18'1414.1 260 / 10996.6 1.1 1.1
2018-Feb-17 02:00N 44°54' W 061°36'9 8.5 270 / 7996.2 1.3 1.2
2018-Feb-17 01:00N 44°54' W 061°48'1414.1 320 / 9995.3 1.7 1.6
2018-Feb-17 00:00N 44°48' W 062°06'1414.1 010 / 7995.0 2.5 2.5
2018-Feb-16 23:00N 44°42' W 062°24'1414.1 020 / 9995.1 2.5 2.5
2018-Feb-16 22:00N 44°36' W 062°42'1010.4 360 / 12995.8 2.8 2.8
2018-Feb-16 21:00N 44°30' W 062°54'1010.5 350 / 9995.6 2.4 2.3
2018-Feb-16 20:00N 44°24' W 063°06'1312.9 010 / 12994.9 1.9 1.8
2018-Feb-16 19:00N 44°24' W 063°24'1312.7 080 / 12994.3 3.8 3.7
2018-Feb-16 18:00N 44°36' W 063°30'0 0.0 120 / 9995.8 3.2 3.1
2018-Feb-16 17:00N 44°36' W 063°30'0 0.0 120 / 4997.5 4.4 4.4
2018-Feb-16 16:00N 44°36' W 063°30'0 0.0 130 / 3999.0 4.8 4.7
2018-Feb-16 15:00N 44°36' W 063°30'0 0.0 230 / 11000.3 3.7 3.6
2018-Feb-16 14:00N 44°36' W 063°30'0 0.0 150 / 51000.3 3.5 3.5
2018-Feb-16 13:00N 44°36' W 063°30'0 0.0 140 / 31000.5 3.3 3.3
2018-Feb-16 12:00N 44°36' W 063°30'0 0.0 290 / 11000.1 4.4 4.4
2018-Feb-16 11:00N 44°36' W 063°30'0 0.0 300 / 41000.1 4.4 4.4
2018-Feb-16 10:00N 44°36' W 063°30'0 0.0 240 / 21001.1 4.1 4.1
2018-Feb-16 09:00N 44°36' W 063°30'0 0.0 260 / 21000.9 3.9 3.9
2018-Feb-16 08:00N 44°36' W 063°30'0 0.0 1000.7 3.5 3.5
2018-Feb-16 06:00N 44°36' W 063°30'0 0.0 110 / 31001.2 2.5 2.4
2018-Feb-16 05:00N 44°36' W 063°30'0 0.0 130 / 21001.6 1.9 1.9
2018-Feb-16 04:00N 44°36' W 063°30'0 0.0 170 / 31002.3 1.7 1.6
2018-Feb-16 03:00N 44°36' W 063°30'0 0.0 110 / 51002.6 2.4 2.4
2018-Feb-16 02:00N 44°36' W 063°30'0 0.0 160 / 31003.9 1.8 1.7
2018-Feb-16 01:00N 44°36' W 063°30'0 0.0 1004.7 1.9 1.8
2018-Feb-16 00:00N 44°36' W 063°30'0 0.0 150 / 71005.1 1.5 1.5
2018-Feb-15 23:00N 44°36' W 063°30'0 0.0 170 / 31005.8 0.5 0.5
2018-Feb-15 22:00N 44°36' W 063°30'0 0.0 150 / 81006.7 0.4 0.4
2018-Feb-15 21:00N 44°36' W 063°30'0 0.0 160 / 51007.4 1.1 0.8
2018-Feb-15 20:00N 44°36' W 063°30'0 0.0 010 / 11009.0 1.3 1.0
2018-Feb-15 18:00N 44°36' W 063°30'0 0.0 130 / 71010.2 4.7 1.5
2018-Feb-15 17:00N 44°36' W 063°30'0 0.0 130 / 51011.0 4.5 1.7
2018-Feb-15 16:00N 44°36' W 063°30'6 6.0 120 / 31012.5 3.9 2.4
2018-Feb-15 15:00N 44°30' W 063°30'9 8.6 240 / 61013.1 0.4 0.3
2018-Feb-15 14:00N 44°30' W 063°18'1312.8 250 / 141013.4 1.4 1.3
2018-Feb-15 13:00N 44°30' W 063°00'1414.2 260 / 121013.5 1.5 1.1
2018-Feb-15 12:00N 44°36' W 062°42'1010.4 260 / 131012.8 1.2 1.1
2018-Feb-15 11:00N 44°42' W 062°30'1312.8 280 / 101012.4 1.1 1.0
2018-Feb-15 10:00N 44°42' W 062°12'1414.1 270 / 141011.9 1.4 1.3
2018-Feb-15 09:00N 44°48' W 061°54'1414.1 250 / 141011.9 1.1 1.0
2018-Feb-15 08:00N 44°54' W 061°36'2412.2 260 / 141011.8 1.0 0.9
2018-Feb-15 06:00N 45°06' W 061°06'1414.0 250 / 111012.3 1.1 1.0
2018-Feb-15 05:00N 45°12' W 060°48'1010.4 240 / 111012.7 1.1 1.0
2018-Feb-15 04:00N 45°18' W 060°36'1414.0 220 / 181013.4 1.2 1.2
2018-Feb-15 03:00N 45°24' W 060°18'1514.7 210 / 201013.7 0.7 0.6
2018-Feb-15 02:00N 45°36' W 060°06'1010.3 220 / 301013.7 0.9 0.4
2018-Feb-15 01:00N 45°42' W 059°54'1514.6 210 / 261014.1 -0.1-0.4
2018-Feb-15 00:00N 45°54' W 059°42'7 7.3 220 / 301014.0 -0.4-1.4
2018-Feb-14 23:00N 46°00' W 059°36'1212.0 210 / 261015.3 -0.7-2.2
2018-Feb-14 22:00N 46°12' W 059°36'1818.0 190 / 191016.3 -1.0-3.6
2018-Feb-14 21:00N 46°30' W 059°36'1312.7 190 / 181016.3 -1.5-4.2
2018-Feb-14 20:00N 46°42' W 059°42'1212.0 200 / 241016.2 -1.7-5.4
2018-Feb-14 19:00N 46°54' W 059°42'7 7.3 200 / 221017.0 -2.0-5.2
2018-Feb-14 18:00N 47°00' W 059°48'1212.0 180 / 211017.6 -3.3-5.8
2018-Feb-14 17:00N 47°12' W 059°48'1312.7 170 / 251017.8 -4.5-7.1
2018-Feb-14 16:00N 47°24' W 059°54'1413.6 210 / 171019.4 -3.8-6.5
2018-Feb-14 15:00N 47°30' W 060°12'1413.5 210 / 231020.7 -5.5-8.3
2018-Feb-14 14:00N 47°36' W 060°30'1010.1 210 / 241021.3 -7.5-10.5
2018-Feb-14 13:00N 47°42' W 060°42'1312.7 180 / 291021.1 -8.8-11.7
2018-Feb-14 12:00N 47°54' W 060°48'8 8.0 210 / 241022.4 -8.7-12.4
2018-Feb-14 11:00N 47°54' W 061°00'1312.7 200 / 261022.7 -9.5-13.4
2018-Feb-14 10:00N 48°06' W 061°06'1010.0 220 / 241023.6 -10.8-15.6
2018-Feb-14 09:00N 48°12' W 061°18'1010.0 190 / 191024.8 -13.0-16.8
2018-Feb-14 08:00N 48°18' W 061°30'1313.4 210 / 171025.7 -12.7-16.8
2018-Feb-14 07:00N 48°24' W 061°48'7 7.2 220 / 201027.0 -12.1-14.8
2018-Feb-14 06:00N 48°30' W 061°54'1010.0 190 / 161027.9 -12.5-15.6
2018-Feb-14 05:00N 48°36' W 062°06'1313.3 240 / 201028.6 -11.3-16.3
2018-Feb-14 04:00N 48°42' W 062°24'1313.3 230 / 171029.8 -11.8-15.3
2018-Feb-14 03:00N 48°48' W 062°42'8 7.9 210 / 121030.8 -12.4-16.6
2018-Feb-14 02:00N 48°48' W 062°54'1313.3 210 / 91031.7 -13.1-16.7
2018-Feb-14 01:00N 48°54' W 063°12'2110.3 200 / 101032.7 -12.6-16.2
2018-Feb-13 23:00N 49°00' W 063°42'10 9.9 290 / 161033.6 -12.5-18.1
2018-Feb-13 22:00N 49°06' W 063°54'1313.2 290 / 131033.3 -13.4-18.0
2018-Feb-13 21:00N 49°12' W 064°12'1313.2 300 / 221033.7 -13.2-19.2
2018-Feb-13 20:00N 49°18' W 064°30'1313.2 280 / 291034.0 -14.6-20.4
2018-Feb-13 19:00N 49°24' W 064°48'1716.7 260 / 301034.5 -15.6-18.4
2018-Feb-13 18:00N 49°30' W 065°12'1313.1 270 / 291035.1 -16.1-20.8
2018-Feb-13 17:00N 49°36' W 065°30'8 7.8 270 / 241035.7 -17.5-22.3
2018-Feb-13 16:00N 49°36' W 065°42'2412.1 260 / 251036.7 -18.0-22.6
2018-Feb-13 14:00N 49°30' W 066°18'1313.2 260 / 161038.0 -18.7-24.8
2018-Feb-13 13:00N 49°24' W 066°36'3015.0 250 / 141038.6 -18.5-23.7
2018-Feb-13 11:00N 49°12' W 067°18'1313.2 260 / 131038.0 -18.9-24.4
2018-Feb-13 10:00N 49°06' W 067°36'1211.8 260 / 141037.6 -18.7-23.6
2018-Feb-13 09:00N 49°06' W 067°54'1414.4 250 / 121036.1 -18.8-24.6
2018-Feb-13 08:00N 48°54' W 068°06'1313.3 240 / 131035.7 -17.0-22.8
2018-Feb-13 07:00N 48°48' W 068°24'1313.3 250 / 131034.6 -16.1-22.5
2018-Feb-13 06:00N 48°42' W 068°42'1414.4 240 / 121033.1 -14.7-21.9
2018-Feb-13 05:00N 48°30' W 068°54'1313.4 230 / 131032.9 -13.9-21.4
2018-Feb-13 04:00N 48°24' W 069°12'1010.0 240 / 121032.4 -12.4-21.7
2018-Feb-13 03:00N 48°18' W 069°24'1414.4 240 / 121031.7 -11.4-18.6
2018-Feb-13 02:00N 48°06' W 069°36'1414.4 290 / 201030.8 -10.5-17.0
2018-Feb-13 01:00N 47°54' W 069°48'1312.7 290 / 171030.1 -9.2-16.6
2018-Feb-13 00:00N 47°42' W 069°54'1717.1 280 / 101029.0 -7.8-16.2
2018-Feb-12 23:00N 47°30' W 070°12'1717.1 260 / 131027.7 -6.5-15.9
2018-Feb-12 22:00N 47°18' W 070°30'1010.1 280 / 111026.3 -5.2-14.6
2018-Feb-12 21:00N 47°12' W 070°42'20 9.9 200 / 101025.0 -4.5-12.9
2018-Feb-12 19:00N 46°54' W 070°54'1116.4 240 / 181023.9 -4.1-8.7
2018-Feb-12 18:20N 46°50' W 071°09'3 9.4
2018-Feb-12 18:00N 46°48' W 071°12'0 0.0 190 / 41023.8 -4.6-9.3
2018-Feb-12 17:00N 46°48' W 071°12'0 0.0 250 / 121023.5 -5.0-9.6
2018-Feb-12 16:00N 46°48' W 071°12'0 0.0 260 / 111023.2 -5.1-9.4
2018-Feb-12 15:00N 46°48' W 071°12'0 0.0 260 / 151022.2 -5.5-10.2
2018-Feb-12 14:00N 46°48' W 071°12'0 0.0 250 / 101021.4 -5.1-9.6
2018-Feb-12 13:00N 46°48' W 071°12'0 0.0 250 / 111019.7 -5.3-8.7
2018-Feb-12 12:00N 46°48' W 071°12'0 0.0 240 / 81017.7 -4.4-7.5
2018-Feb-12 11:00N 46°48' W 071°12'0 0.0 270 / 161016.2 -3.1-6.9
2018-Feb-12 10:00N 46°48' W 071°12'0 0.0 260 / 181013.5 -1.6-5.1
2018-Feb-12 09:00N 46°48' W 071°12'0 0.0 250 / 141010.6 0.1-2.3
2018-Feb-12 08:00N 46°48' W 071°12'0 0.0 250 / 111009.1 0.4-0.9
2018-Feb-12 07:00N 46°48' W 071°12'0 0.0 240 / 31007.8 -0.4-0.7
2018-Feb-12 06:00N 46°48' W 071°12'0 0.0 1006.1 -1.8-1.9
2018-Feb-12 04:00N 46°48' W 071°12'0 0.0 060 / 11004.5 -2.4-3.0
2018-Feb-12 03:00N 46°48' W 071°12'0 0.0 050 / 41004.8 -2.6-3.3
2018-Feb-12 02:00N 46°48' W 071°12'0 0.0 060 / 131005.9 -4.1-5.1
2018-Feb-12 01:00N 46°48' W 071°12'0 0.0 070 / 41007.6 -4.6-5.5
2018-Feb-12 00:00N 46°48' W 071°12'0 0.0 060 / 161008.9 -5.3-6.7
2018-Feb-11 19:00N 46°48' W 071°12'0 0.0 060 / 171019.0 -6.2-9.6
2018-Feb-11 18:00N 46°48' W 071°12'0 0.0 050 / 151020.9 -5.8-9.3
2018-Feb-11 16:00N 46°48' W 071°12'0 0.0 050 / 151023.6 -5.7-9.7
2018-Feb-11 15:00N 46°48' W 071°12'0 0.0 050 / 161024.3 -5.4-9.1
2018-Feb-11 14:00N 46°48' W 071°12'0 0.0 060 / 131024.5 -5.5-9.6
2018-Feb-11 13:00N 46°48' W 071°12'0 0.0 060 / 91024.2 -5.9-10.2
2018-Feb-11 12:00N 46°48' W 071°12'0 0.0 060 / 111023.7 -5.7-10.9
2018-Feb-11 11:00N 46°48' W 071°12'0 0.0 070 / 31023.2 -5.3-8.0
2018-Feb-11 10:00N 46°48' W 071°12'0 0.0 060 / 121022.6 -4.5-6.0
2018-Feb-11 09:00N 46°48' W 071°12'0 0.0 090 / 41022.1 -4.9-6.0
2018-Feb-11 08:00N 46°48' W 071°12'0 0.0 1021.8 -5.3-6.9
2018-Feb-11 07:00N 46°48' W 071°12'0 0.0 200 / 31021.8 -4.8-6.5
2018-Feb-11 06:00N 46°48' W 071°12'0 0.0 270 / 31021.6 -5.3-6.5
2018-Feb-11 04:00N 46°48' W 071°12'0 0.0 230 / 11021.4 -4.6-5.5
2018-Feb-11 03:00N 46°48' W 071°12'0 0.0 210 / 31021.3 -4.7-5.2
2018-Feb-11 02:00N 46°48' W 071°12'0 0.0 210 / 41021.5 -4.7-5.2
2018-Feb-11 01:00N 46°48' W 071°12'0 0.0 210 / 41021.3 -4.9-5.6
2018-Feb-11 00:00N 46°48' W 071°12'0 0.0 260 / 31021.2 -5.5-6.2
2018-Feb-10 23:00N 46°48' W 071°12'0 0.0 210 / 51020.8 -4.8-5.7
2018-Feb-10 22:00N 46°48' W 071°12'0 0.0 210 / 61020.2 -5.1-5.8
2018-Feb-10 21:00N 46°48' W 071°12'0 0.0 240 / 21020.1 -5.5-6.3
2018-Feb-10 20:00N 46°48' W 071°12'0 0.0 250 / 21019.8 -5.5-8.0
2018-Feb-10 19:00N 46°48' W 071°12'0 0.0 1020.4 -5.4-7.9
2018-Feb-10 18:00N 46°48' W 071°12'1 1.5 210 / 11021.4 -5.4-7.9
2018-Feb-10 17:26N 46°48' W 071°13'0 0.7
2018-Feb-10 17:00N 46°48' W 071°13'154.8
2018-Feb-10 17:00N 46°48' W 071°12'3 6.0 360 / 31021.9 -6.7-8.3
2018-Feb-10 16:30N 46°50' W 071°10'1122.1
2018-Feb-10 16:00N 46°54' W 070°54'7 7.3 070 / 21023.0 -7.7-9.1
2018-Feb-10 15:00N 47°00' W 070°48'1514.5 070 / 31023.4 -7.3-8.6
2018-Feb-10 14:00N 47°12' W 070°36'1414.5 360 / 51023.9 -8.4-10.0
2018-Feb-10 13:00N 47°24' W 070°24'1010.1 250 / 51024.3 -12.1-13.1
2018-Feb-10 12:00N 47°30' W 070°12'1717.1 360 / 31024.6 -9.9-10.8
2018-Feb-10 11:00N 47°42' W 069°54'14 7.2 220 / 71024.7 -9.0-11.8
2018-Feb-10 09:00N 47°54' W 069°42'1312.7 350 / 41026.1 -10.6-11.9
2018-Feb-10 08:00N 48°06' W 069°36'1414.4 240 / 71026.2 -11.1-12.2
2018-Feb-10 07:00N 48°18' W 069°24'1010.0 280 / 51026.8 -14.9-16.3
2018-Feb-10 06:00N 48°24' W 069°12'1716.9 230 / 141026.6 -9.6-11.7
2018-Feb-10 05:00N 48°36' W 068°54'1313.3 240 / 101026.5 -9.2-11.6
2018-Feb-10 04:00N 48°42' W 068°36'10 9.9 220 / 171026.5 -9.2-12.7
2018-Feb-10 03:00N 48°48' W 068°24'   230 / 81027.0 -9.9-13.7
Track history (hours):
 
Tides and Currents Weather Stations Pressure Air Temp Water Temp Dewpoint Dewpoint Depression Visibility Wind Speed Wind Dir Waves Ship Positions

Algoscotia

Last reported at 2018-Feb-20 03:00 UTC. Time now 2018-Feb-20 04:17 UTC.
Position N 46°48' W 071°12'.

Length 148.8 m; beam 23.76 m; draft 3.6 m.

Type: Tanker. MMSI: 316009560.

Wind from 220 at 6 knots

Barometer 1022.0 mb
Air temperature 1.5 ° C
Dewpoint -0.3 ° C

Date/timePositionNaut miles runAvg speedWind from/ knotsBaromVisibWave heightAir tempDewpointWater temp
2018-Feb-20 03:00N 46°48' W 071°12'0 0.0 220 / 61022.0 1.5-0.3
2018-Feb-20 02:00N 46°48' W 071°12'0 0.0 230 / 71022.0 2.0-1.1
2018-Feb-20 01:00N 46°48' W 071°12'0 0.0 230 / 111021.7 3.0-2.6
2018-Feb-20 00:00N 46°48' W 071°12'0 0.0 210 / 71021.2 3.5-3.2
2018-Feb-19 23:00N 46°48' W 071°12'0 0.0 240 / 21021.0 4.0-3.4
2018-Feb-19 22:00N 46°48' W 071°12'0 0.0 160 / 11021.6 4.3-4.2
2018-Feb-19 20:00N 46°48' W 071°12'0 0.0 050 / 11021.8 5.3-4.8
2018-Feb-19 19:00N 46°48' W 071°12'0 0.0 060 / 31021.9 3.7-5.9
2018-Feb-19 18:00N 46°48' W 071°12'1 1.2 030 / 81022.8 1.2-6.3
2018-Feb-19 17:05N 46°49' W 071°12'112.7
2018-Feb-19 17:00N 46°48' W 071°12'2733.4 120 / 11024.0 -0.4-6.1
2018-Feb-19 16:59N 46°50' W 071°11'1312.7
2018-Feb-19 16:00N 46°54' W 070°54'7 7.3 230 / 41024.7 0.2-6.5
2018-Feb-19 15:00N 47°00' W 070°48'1312.7 250 / 131025.3 -1.0-6.9
2018-Feb-19 14:00N 47°12' W 070°42'1010.1 220 / 271025.9 -0.2-7.0
2018-Feb-19 13:00N 47°18' W 070°30'1414.5 200 / 231026.4 -1.2-4.9
2018-Feb-19 12:00N 47°30' W 070°18'1413.5 220 / 201026.9 -1.7-5.1
2018-Feb-19 11:00N 47°36' W 070°00'1414.5 230 / 121027.4 -3.4-5.4
2018-Feb-19 10:00N 47°48' W 069°48'2713.4 190 / 131027.0 -3.1-6.2
2018-Feb-19 08:00N 48°12' W 069°30'1414.4 220 / 231026.2 -2.3-4.5
2018-Feb-19 07:00N 48°24' W 069°18'1313.4 230 / 151026.9 -2.9-5.2
2018-Feb-19 06:00N 48°30' W 069°00'1414.4 220 / 191027.1 -2.4-4.7
2018-Feb-19 05:00N 48°42' W 068°48'1313.3 250 / 131026.8 -2.4-6.1
2018-Feb-19 04:00N 48°48' W 068°30'1313.3 280 / 81026.8 -2.1-8.4
2018-Feb-19 03:00N 48°54' W 068°12'1313.3 290 / 101026.4 -2.2-5.9
2018-Feb-19 02:00N 49°00' W 067°54'10 9.9 280 / 171025.5 -2.1-6.3
2018-Feb-19 01:00N 49°06' W 067°42'10 9.9 270 / 221023.4 -1.7-7.3
2018-Feb-19 00:00N 49°12' W 067°30'1313.2 270 / 161022.1 -1.7-5.3
2018-Feb-18 23:00N 49°18' W 067°12'1313.2 270 / 181019.8 -2.1-4.7
2018-Feb-18 22:00N 49°24' W 066°54'1211.7 250 / 211018.8 -2.5-5.0
2018-Feb-18 21:00N 49°24' W 066°36'1313.2 240 / 151018.1 -2.9-4.7
2018-Feb-18 20:00N 49°30' W 066°18'1716.7 230 / 61017.1 -4.2-5.9
2018-Feb-18 19:00N 49°36' W 065°54'8 7.8 260 / 121016.4 -4.5-6.5
2018-Feb-18 18:00N 49°36' W 065°42'1211.7 250 / 101016.2 -4.0-7.8
2018-Feb-18 17:00N 49°36' W 065°24'1313.1 260 / 71016.1 -4.3-8.8
2018-Feb-18 16:00N 49°30' W 065°06'1313.2 230 / 91015.9 -4.3-9.3
2018-Feb-18 15:00N 49°24' W 064°48'1313.2 220 / 101016.0 -5.5-9.3
2018-Feb-18 14:00N 49°18' W 064°30'1313.2 210 / 111016.2 -5.9-9.9
2018-Feb-18 13:00N 49°12' W 064°12'1211.8 180 / 161016.4 -6.8-10.6
2018-Feb-18 12:00N 49°12' W 063°54'10 9.9 180 / 171016.8 -6.5-9.1
2018-Feb-18 11:00N 49°06' W 063°42'1716.8 160 / 121017.6 -7.1-10.3
2018-Feb-18 10:00N 48°54' W 063°24'1211.8 170 / 171019.3 -7.6-9.9
2018-Feb-18 09:00N 48°54' W 063°06'1313.3 130 / 131020.3 -8.2-10.5
2018-Feb-18 08:00N 48°48' W 062°48'8 7.9 170 / 171021.3 -9.5-11.5
2018-Feb-18 07:00N 48°48' W 062°36'1313.3 160 / 121022.9 -9.9-12.2
2018-Feb-18 06:00N 48°42' W 062°18'1313.3 180 / 151023.5 -10.3-12.7
2018-Feb-18 05:00N 48°36' W 062°00'1010.0 200 / 131024.6 -11.2-14.1
2018-Feb-18 04:00N 48°30' W 061°48'1010.0 170 / 81025.9 -12.3-15.5
2018-Feb-18 03:00N 48°24' W 061°36'2512.3 230 / 91026.3 -11.9-15.7
2018-Feb-18 01:00N 48°18' W 061°00'1313.4 280 / 201025.2 -11.7-15.7
2018-Feb-18 00:00N 48°12' W 060°42'1010.0 290 / 251024.8 -11.2-14.9
2018-Feb-17 23:00N 48°06' W 060°30'1414.4 300 / 331023.6 -11.2-16.0
2018-Feb-17 22:00N 47°54' W 060°18'1312.7 290 / 291023.3 -11.5-15.3
2018-Feb-17 21:00N 47°42' W 060°12'7 7.2 290 / 331023.1 -12.2-16.2
2018-Feb-17 20:00N 47°36' W 060°06'1414.5 290 / 401021.7 -12.2-16.4
2018-Feb-17 19:00N 47°24' W 059°54'1312.7 290 / 341020.8 -11.8-15.4
2018-Feb-17 18:00N 47°12' W 059°48'7 7.3 290 / 401018.3 -11.5-15.8
2018-Feb-17 17:00N 47°06' W 059°42'1312.7 260 / 131017.6 -11.6-16.8
2018-Feb-17 16:00N 46°54' W 059°48'6 6.0 300 / 331017.7 -11.4-15.2
2018-Feb-17 15:00N 46°48' W 059°48'18 9.2 290 / 351016.5 -10.7-14.9
2018-Feb-17 13:00N 46°30' W 059°42'1312.7 300 / 401011.3 -9.0-13.4
2018-Feb-17 12:00N 46°18' W 059°36'1212.0 290 / 391009.8 -8.1-12.2
2018-Feb-17 11:00N 46°06' W 059°36'1212.0 300 / 391007.0 -6.7-11.3
2018-Feb-17 10:00N 45°54' W 059°36'1010.3 310 / 261005.5 -4.9-9.3
2018-Feb-17 09:00N 45°48' W 059°48'1010.3 310 / 241003.7 -4.2-8.3
2018-Feb-17 08:00N 45°42' W 060°00'1514.6 320 / 251001.7 -3.1-6.9
2018-Feb-17 07:00N 45°30' W 060°12'1414.0 320 / 29999.9 -2.2-5.3
2018-Feb-17 06:00N 45°24' W 060°30'1514.7 320 / 28997.9 -1.2-2.8
2018-Feb-17 05:00N 45°12' W 060°42'1010.4 280 / 13997.3 -0.6-1.1
2018-Feb-17 04:00N 45°06' W 060°54'1818.0 320 / 18996.9 0.1-0.0
2018-Feb-17 03:00N 45°00' W 061°18'1414.1 260 / 10996.6 1.1 1.1
2018-Feb-17 02:00N 44°54' W 061°36'9 8.5 270 / 7996.2 1.3 1.2
2018-Feb-17 01:00N 44°54' W 061°48'1414.1 320 / 9995.3 1.7 1.6
2018-Feb-17 00:00N 44°48' W 062°06'1414.1 010 / 7995.0 2.5 2.5
2018-Feb-16 23:00N 44°42' W 062°24'1414.1 020 / 9995.1 2.5 2.5
2018-Feb-16 22:00N 44°36' W 062°42'1010.4 360 / 12995.8 2.8 2.8
2018-Feb-16 21:00N 44°30' W 062°54'1010.5 350 / 9995.6 2.4 2.3
2018-Feb-16 20:00N 44°24' W 063°06'1312.9 010 / 12994.9 1.9 1.8
2018-Feb-16 19:00N 44°24' W 063°24'1312.7 080 / 12994.3 3.8 3.7
2018-Feb-16 18:00N 44°36' W 063°30'0 0.0 120 / 9995.8 3.2 3.1
2018-Feb-16 17:00N 44°36' W 063°30'0 0.0 120 / 4997.5 4.4 4.4
2018-Feb-16 16:00N 44°36' W 063°30'0 0.0 130 / 3999.0 4.8 4.7
2018-Feb-16 15:00N 44°36' W 063°30'0 0.0 230 / 11000.3 3.7 3.6
2018-Feb-16 14:00N 44°36' W 063°30'0 0.0 150 / 51000.3 3.5 3.5
2018-Feb-16 13:00N 44°36' W 063°30'0 0.0 140 / 31000.5 3.3 3.3
2018-Feb-16 12:00N 44°36' W 063°30'0 0.0 290 / 11000.1 4.4 4.4
2018-Feb-16 11:00N 44°36' W 063°30'0 0.0 300 / 41000.1 4.4 4.4
2018-Feb-16 10:00N 44°36' W 063°30'0 0.0 240 / 21001.1 4.1 4.1
2018-Feb-16 09:00N 44°36' W 063°30'0 0.0 260 / 21000.9 3.9 3.9
2018-Feb-16 08:00N 44°36' W 063°30'0 0.0 1000.7 3.5 3.5
2018-Feb-16 06:00N 44°36' W 063°30'0 0.0 110 / 31001.2 2.5 2.4
2018-Feb-16 05:00N 44°36' W 063°30'0 0.0 130 / 21001.6 1.9 1.9
2018-Feb-16 04:00N 44°36' W 063°30'0 0.0 170 / 31002.3 1.7 1.6
2018-Feb-16 03:00N 44°36' W 063°30'0 0.0 110 / 51002.6 2.4 2.4
2018-Feb-16 02:00N 44°36' W 063°30'0 0.0 160 / 31003.9 1.8 1.7
2018-Feb-16 01:00N 44°36' W 063°30'0 0.0 1004.7 1.9 1.8
2018-Feb-16 00:00N 44°36' W 063°30'0 0.0 150 / 71005.1 1.5 1.5
2018-Feb-15 23:00N 44°36' W 063°30'0 0.0 170 / 31005.8 0.5 0.5
2018-Feb-15 22:00N 44°36' W 063°30'0 0.0 150 / 81006.7 0.4 0.4
2018-Feb-15 21:00N 44°36' W 063°30'0 0.0 160 / 51007.4 1.1 0.8
2018-Feb-15 20:00N 44°36' W 063°30'0 0.0 010 / 11009.0 1.3 1.0
2018-Feb-15 18:00N 44°36' W 063°30'0 0.0 130 / 71010.2 4.7 1.5
2018-Feb-15 17:00N 44°36' W 063°30'0 0.0 130 / 51011.0 4.5 1.7
2018-Feb-15 16:00N 44°36' W 063°30'6 6.0 120 / 31012.5 3.9 2.4
2018-Feb-15 15:00N 44°30' W 063°30'9 8.6 240 / 61013.1 0.4 0.3
2018-Feb-15 14:00N 44°30' W 063°18'1312.8 250 / 141013.4 1.4 1.3
2018-Feb-15 13:00N 44°30' W 063°00'1414.2 260 / 121013.5 1.5 1.1
2018-Feb-15 12:00N 44°36' W 062°42'1010.4 260 / 131012.8 1.2 1.1
2018-Feb-15 11:00N 44°42' W 062°30'1312.8 280 / 101012.4 1.1 1.0
2018-Feb-15 10:00N 44°42' W 062°12'1414.1 270 / 141011.9 1.4 1.3
2018-Feb-15 09:00N 44°48' W 061°54'1414.1 250 / 141011.9 1.1 1.0
2018-Feb-15 08:00N 44°54' W 061°36'2412.2 260 / 141011.8 1.0 0.9
2018-Feb-15 06:00N 45°06' W 061°06'1414.0 250 / 111012.3 1.1 1.0
2018-Feb-15 05:00N 45°12' W 060°48'1010.4 240 / 111012.7 1.1 1.0
2018-Feb-15 04:00N 45°18' W 060°36'1414.0 220 / 181013.4 1.2 1.2
2018-Feb-15 03:00N 45°24' W 060°18'1514.7 210 / 201013.7 0.7 0.6
2018-Feb-15 02:00N 45°36' W 060°06'1010.3 220 / 301013.7 0.9 0.4
2018-Feb-15 01:00N 45°42' W 059°54'1514.6 210 / 261014.1 -0.1-0.4
2018-Feb-15 00:00N 45°54' W 059°42'7 7.3 220 / 301014.0 -0.4-1.4
2018-Feb-14 23:00N 46°00' W 059°36'1212.0 210 / 261015.3 -0.7-2.2
2018-Feb-14 22:00N 46°12' W 059°36'1818.0 190 / 191016.3 -1.0-3.6
2018-Feb-14 21:00N 46°30' W 059°36'1312.7 190 / 181016.3 -1.5-4.2
2018-Feb-14 20:00N 46°42' W 059°42'1212.0 200 / 241016.2 -1.7-5.4
2018-Feb-14 19:00N 46°54' W 059°42'7 7.3 200 / 221017.0 -2.0-5.2
2018-Feb-14 18:00N 47°00' W 059°48'1212.0 180 / 211017.6 -3.3-5.8
2018-Feb-14 17:00N 47°12' W 059°48'1312.7 170 / 251017.8 -4.5-7.1
2018-Feb-14 16:00N 47°24' W 059°54'1413.6 210 / 171019.4 -3.8-6.5
2018-Feb-14 15:00N 47°30' W 060°12'1413.5 210 / 231020.7 -5.5-8.3
2018-Feb-14 14:00N 47°36' W 060°30'1010.1 210 / 241021.3 -7.5-10.5
2018-Feb-14 13:00N 47°42' W 060°42'1312.7 180 / 291021.1 -8.8-11.7
2018-Feb-14 12:00N 47°54' W 060°48'8 8.0 210 / 241022.4 -8.7-12.4
2018-Feb-14 11:00N 47°54' W 061°00'1312.7 200 / 261022.7 -9.5-13.4
2018-Feb-14 10:00N 48°06' W 061°06'1010.0 220 / 241023.6 -10.8-15.6
2018-Feb-14 09:00N 48°12' W 061°18'1010.0 190 / 191024.8 -13.0-16.8
2018-Feb-14 08:00N 48°18' W 061°30'1313.4 210 / 171025.7 -12.7-16.8
2018-Feb-14 07:00N 48°24' W 061°48'7 7.2 220 / 201027.0 -12.1-14.8
2018-Feb-14 06:00N 48°30' W 061°54'1010.0 190 / 161027.9 -12.5-15.6
2018-Feb-14 05:00N 48°36' W 062°06'1313.3 240 / 201028.6 -11.3-16.3
2018-Feb-14 04:00N 48°42' W 062°24'1313.3 230 / 171029.8 -11.8-15.3
2018-Feb-14 03:00N 48°48' W 062°42'8 7.9 210 / 121030.8 -12.4-16.6
2018-Feb-14 02:00N 48°48' W 062°54'1313.3 210 / 91031.7 -13.1-16.7
2018-Feb-14 01:00N 48°54' W 063°12'2110.3 200 / 101032.7 -12.6-16.2
2018-Feb-13 23:00N 49°00' W 063°42'10 9.9 290 / 161033.6 -12.5-18.1
2018-Feb-13 22:00N 49°06' W 063°54'1313.2 290 / 131033.3 -13.4-18.0
2018-Feb-13 21:00N 49°12' W 064°12'1313.2 300 / 221033.7 -13.2-19.2
2018-Feb-13 20:00N 49°18' W 064°30'1313.2 280 / 291034.0 -14.6-20.4
2018-Feb-13 19:00N 49°24' W 064°48'1716.7 260 / 301034.5 -15.6-18.4
2018-Feb-13 18:00N 49°30' W 065°12'1313.1 270 / 291035.1 -16.1-20.8
2018-Feb-13 17:00N 49°36' W 065°30'8 7.8 270 / 241035.7 -17.5-22.3
2018-Feb-13 16:00N 49°36' W 065°42'2412.1 260 / 251036.7 -18.0-22.6
2018-Feb-13 14:00N 49°30' W 066°18'1313.2 260 / 161038.0 -18.7-24.8
2018-Feb-13 13:00N 49°24' W 066°36'3015.0 250 / 141038.6 -18.5-23.7
2018-Feb-13 11:00N 49°12' W 067°18'1313.2 260 / 131038.0 -18.9-24.4
2018-Feb-13 10:00N 49°06' W 067°36'1211.8 260 / 141037.6 -18.7-23.6
2018-Feb-13 09:00N 49°06' W 067°54'1414.4 250 / 121036.1 -18.8-24.6
2018-Feb-13 08:00N 48°54' W 068°06'1313.3 240 / 131035.7 -17.0-22.8
2018-Feb-13 07:00N 48°48' W 068°24'1313.3 250 / 131034.6 -16.1-22.5
2018-Feb-13 06:00N 48°42' W 068°42'1414.4 240 / 121033.1 -14.7-21.9
2018-Feb-13 05:00N 48°30' W 068°54'1313.4 230 / 131032.9 -13.9-21.4
2018-Feb-13 04:00N 48°24' W 069°12'1010.0 240 / 121032.4 -12.4-21.7
2018-Feb-13 03:00N 48°18' W 069°24'1414.4 240 / 121031.7 -11.4-18.6
2018-Feb-13 02:00N 48°06' W 069°36'1414.4 290 / 201030.8 -10.5-17.0
2018-Feb-13 01:00N 47°54' W 069°48'1312.7 290 / 171030.1 -9.2-16.6
2018-Feb-13 00:00N 47°42' W 069°54'1717.1 280 / 101029.0 -7.8-16.2
2018-Feb-12 23:00N 47°30' W 070°12'1717.1 260 / 131027.7 -6.5-15.9
2018-Feb-12 22:00N 47°18' W 070°30'1010.1 280 / 111026.3 -5.2-14.6
2018-Feb-12 21:00N 47°12' W 070°42'20 9.9 200 / 101025.0 -4.5-12.9
2018-Feb-12 19:00N 46°54' W 070°54'1116.4 240 / 181023.9 -4.1-8.7
2018-Feb-12 18:20N 46°50' W 071°09'3 9.4
2018-Feb-12 18:00N 46°48' W 071°12'0 0.0 190 / 41023.8 -4.6-9.3
2018-Feb-12 17:00N 46°48' W 071°12'0 0.0 250 / 121023.5 -5.0-9.6
2018-Feb-12 16:00N 46°48' W 071°12'0 0.0 260 / 111023.2 -5.1-9.4
2018-Feb-12 15:00N 46°48' W 071°12'0 0.0 260 / 151022.2 -5.5-10.2
2018-Feb-12 14:00N 46°48' W 071°12'0 0.0 250 / 101021.4 -5.1-9.6
2018-Feb-12 13:00N 46°48' W 071°12'0 0.0 250 / 111019.7 -5.3-8.7
2018-Feb-12 12:00N 46°48' W 071°12'0 0.0 240 / 81017.7 -4.4-7.5
2018-Feb-12 11:00N 46°48' W 071°12'0 0.0 270 / 161016.2 -3.1-6.9
2018-Feb-12 10:00N 46°48' W 071°12'0 0.0 260 / 181013.5 -1.6-5.1
2018-Feb-12 09:00N 46°48' W 071°12'0 0.0 250 / 141010.6 0.1-2.3
2018-Feb-12 08:00N 46°48' W 071°12'0 0.0 250 / 111009.1 0.4-0.9
2018-Feb-12 07:00N 46°48' W 071°12'0 0.0 240 / 31007.8 -0.4-0.7
2018-Feb-12 06:00N 46°48' W 071°12'0 0.0 1006.1 -1.8-1.9
2018-Feb-12 04:00N 46°48' W 071°12'0 0.0 060 / 11004.5 -2.4-3.0
2018-Feb-12 03:00N 46°48' W 071°12'0 0.0 050 / 41004.8 -2.6-3.3
2018-Feb-12 02:00N 46°48' W 071°12'0 0.0 060 / 131005.9 -4.1-5.1
2018-Feb-12 01:00N 46°48' W 071°12'0 0.0 070 / 41007.6 -4.6-5.5
2018-Feb-12 00:00N 46°48' W 071°12'0 0.0 060 / 161008.9 -5.3-6.7
2018-Feb-11 19:00N 46°48' W 071°12'0 0.0 060 / 171019.0 -6.2-9.6
2018-Feb-11 18:00N 46°48' W 071°12'0 0.0 050 / 151020.9 -5.8-9.3
2018-Feb-11 16:00N 46°48' W 071°12'0 0.0 050 / 151023.6 -5.7-9.7
2018-Feb-11 15:00N 46°48' W 071°12'0 0.0 050 / 161024.3 -5.4-9.1
2018-Feb-11 14:00N 46°48' W 071°12'0 0.0 060 / 131024.5 -5.5-9.6
2018-Feb-11 13:00N 46°48' W 071°12'0 0.0 060 / 91024.2 -5.9-10.2
2018-Feb-11 12:00N 46°48' W 071°12'0 0.0 060 / 111023.7 -5.7-10.9
2018-Feb-11 11:00N 46°48' W 071°12'0 0.0 070 / 31023.2 -5.3-8.0
2018-Feb-11 10:00N 46°48' W 071°12'0 0.0 060 / 121022.6 -4.5-6.0
2018-Feb-11 09:00N 46°48' W 071°12'0 0.0 090 / 41022.1 -4.9-6.0
2018-Feb-11 08:00N 46°48' W 071°12'0 0.0 1021.8 -5.3-6.9
2018-Feb-11 07:00N 46°48' W 071°12'0 0.0 200 / 31021.8 -4.8-6.5
2018-Feb-11 06:00N 46°48' W 071°12'0 0.0 270 / 31021.6 -5.3-6.5
2018-Feb-11 04:00N 46°48' W 071°12'0 0.0 230 / 11021.4 -4.6-5.5
2018-Feb-11 03:00N 46°48' W 071°12'0 0.0 210 / 31021.3 -4.7-5.2
2018-Feb-11 02:00N 46°48' W 071°12'0 0.0 210 / 41021.5 -4.7-5.2
2018-Feb-11 01:00N 46°48' W 071°12'0 0.0 210 / 41021.3 -4.9-5.6
2018-Feb-11 00:00N 46°48' W 071°12'0 0.0 260 / 31021.2 -5.5-6.2
2018-Feb-10 23:00N 46°48' W 071°12'0 0.0 210 / 51020.8 -4.8-5.7
2018-Feb-10 22:00N 46°48' W 071°12'0 0.0 210 / 61020.2 -5.1-5.8
2018-Feb-10 21:00N 46°48' W 071°12'0 0.0 240 / 21020.1 -5.5-6.3
2018-Feb-10 20:00N 46°48' W 071°12'0 0.0 250 / 21019.8 -5.5-8.0
2018-Feb-10 19:00N 46°48' W 071°12'0 0.0 1020.4 -5.4-7.9
2018-Feb-10 18:00N 46°48' W 071°12'1 1.5 210 / 11021.4 -5.4-7.9
2018-Feb-10 17:26N 46°48' W 071°13'0 0.7
2018-Feb-10 17:00N 46°48' W 071°13'154.8
2018-Feb-10 17:00N 46°48' W 071°12'3 6.0 360 / 31021.9 -6.7-8.3
2018-Feb-10 16:30N 46°50' W 071°10'1122.1
2018-Feb-10 16:00N 46°54' W 070°54'7 7.3 070 / 21023.0 -7.7-9.1
2018-Feb-10 15:00N 47°00' W 070°48'1514.5 070 / 31023.4 -7.3-8.6
2018-Feb-10 14:00N 47°12' W 070°36'1414.5 360 / 51023.9 -8.4-10.0
2018-Feb-10 13:00N 47°24' W 070°24'1010.1 250 / 51024.3 -12.1-13.1
2018-Feb-10 12:00N 47°30' W 070°12'1717.1 360 / 31024.6 -9.9-10.8
2018-Feb-10 11:00N 47°42' W 069°54'14 7.2 220 / 71024.7 -9.0-11.8
2018-Feb-10 09:00N 47°54' W 069°42'1312.7 350 / 41026.1 -10.6-11.9
2018-Feb-10 08:00N 48°06' W 069°36'1414.4 240 / 71026.2 -11.1-12.2
2018-Feb-10 07:00N 48°18' W 069°24'1010.0 280 / 51026.8 -14.9-16.3
2018-Feb-10 06:00N 48°24' W 069°12'1716.9 230 / 141026.6 -9.6-11.7
2018-Feb-10 05:00N 48°36' W 068°54'1313.3 240 / 101026.5 -9.2-11.6
2018-Feb-10 04:00N 48°42' W 068°36'10 9.9 220 / 171026.5 -9.2-12.7
2018-Feb-10 03:00N 48°48' W 068°24'   230 / 81027.0 -9.9-13.7

Dump ship's entire track history